createdAt,value
2019-04-04T00:02:08.411Z,7.23
2019-04-04T00:04:38.949Z,7.15
2019-04-04T00:07:09.429Z,7.13
2019-04-04T00:09:39.961Z,7.07
2019-04-04T00:12:11.404Z,7.07
2019-04-04T00:14:43.491Z,7.09
2019-04-04T00:17:14.084Z,7.08
2019-04-04T00:19:44.923Z,7.06
2019-04-04T00:22:15.707Z,7.06
2019-04-04T00:24:46.656Z,7.00
2019-04-04T00:27:17.133Z,7.12
2019-04-04T00:29:48.506Z,7.12
2019-04-04T00:32:21.065Z,7.15
2019-04-04T00:34:52.892Z,7.20
2019-04-04T00:37:23.517Z,7.17
2019-04-04T00:39:54.196Z,7.15
2019-04-04T00:42:24.783Z,7.13
2019-04-04T00:44:55.806Z,6.92
2019-04-04T00:47:27.014Z,6.79
2019-04-04T00:49:57.889Z,6.87
2019-04-04T00:52:28.443Z,6.82
2019-04-04T00:55:00.072Z,6.79
2019-04-04T00:57:32.437Z,6.86
2019-04-04T01:00:03.247Z,6.82
2019-04-04T01:02:33.748Z,6.88
2019-04-04T01:05:04.316Z,6.89
2019-04-04T01:07:35.803Z,6.95
2019-04-04T01:10:07.454Z,6.82
2019-04-04T01:12:37.935Z,6.77
2019-04-04T01:15:09.605Z,6.81
2019-04-04T01:17:40.101Z,6.77
2019-04-04T01:20:11.087Z,6.73
2019-04-04T01:22:41.881Z,6.71
2019-04-04T01:25:12.840Z,6.66
2019-04-04T01:27:43.312Z,6.66
2019-04-04T01:30:14.163Z,6.84
2019-04-04T01:32:46.273Z,6.87
2019-04-04T01:35:16.802Z,6.96
2019-04-04T01:37:47.259Z,7.00
2019-04-04T01:40:17.711Z,6.85
2019-04-04T01:42:48.496Z,6.76
2019-04-04T01:45:19.820Z,6.79
2019-04-04T01:47:50.286Z,6.74
2019-04-04T01:50:22.465Z,6.75
2019-04-04T01:52:53.957Z,6.81
2019-04-04T01:55:24.424Z,6.73
2019-04-04T01:57:54.847Z,6.69
2019-04-04T02:00:25.267Z,6.65
2019-04-04T02:02:55.902Z,6.67
2019-04-04T02:05:26.977Z,6.63
2019-04-04T02:07:58.871Z,6.50
2019-04-04T02:10:30.446Z,6.55
2019-04-04T02:13:00.865Z,6.54
2019-04-04T02:15:31.287Z,6.54
2019-04-04T02:18:01.750Z,6.50
2019-04-04T02:20:32.559Z,6.45
2019-04-04T02:23:02.968Z,6.45
2019-04-04T02:25:34.083Z,6.43
2019-04-04T02:28:06.931Z,6.49
2019-04-04T02:30:37.371Z,6.56
2019-04-04T02:33:07.829Z,6.49
2019-04-04T02:35:38.265Z,6.45
2019-04-04T02:38:09.967Z,6.45
2019-04-04T02:40:41.996Z,6.43
2019-04-04T02:43:13.121Z,6.49
2019-04-04T02:45:43.921Z,6.49
2019-04-04T02:48:14.401Z,6.70
2019-04-04T02:50:45.719Z,6.79
2019-04-04T02:53:19.362Z,6.88
2019-04-04T02:55:48.340Z,6.91
2019-04-04T02:58:18.771Z,6.89
2019-04-04T03:00:49.561Z,6.89
2019-04-04T03:03:19.976Z,6.93
2019-04-04T03:05:52.087Z,6.87
2019-04-04T03:08:22.985Z,6.88
2019-04-04T03:10:53.781Z,6.82
2019-04-04T03:13:24.193Z,6.71
2019-04-04T03:15:55.120Z,6.73
2019-04-04T03:18:25.544Z,6.87
2019-04-04T03:20:56.364Z,6.79
2019-04-04T03:23:27.233Z,6.79
2019-04-04T03:25:57.656Z,6.86
2019-04-04T03:28:31.326Z,6.87
2019-04-04T03:31:02.927Z,6.93
2019-04-04T03:33:33.017Z,6.94
2019-04-04T03:36:03.556Z,6.98
2019-04-04T03:38:34.029Z,6.93
2019-04-04T03:41:05.053Z,6.85
2019-04-04T03:43:35.483Z,6.81
2019-04-04T03:46:05.952Z,6.85
2019-04-04T03:48:36.823Z,6.89
2019-04-04T03:51:07.265Z,6.92
2019-04-04T03:53:39.925Z,6.85
2019-04-04T03:56:10.687Z,6.83
2019-04-04T03:58:41.460Z,6.81
2019-04-04T04:01:13.118Z,6.81
2019-04-04T04:03:43.827Z,6.76
2019-04-04T04:06:14.569Z,6.85
2019-04-04T04:08:45.051Z,6.91
2019-04-04T04:11:15.867Z,6.87
2019-04-04T04:13:48.787Z,6.85
2019-04-04T04:16:18.919Z,6.90
2019-04-04T04:18:53.920Z,6.81
2019-04-04T04:21:22.157Z,6.85
2019-04-04T04:23:56.991Z,6.77
2019-04-04T04:26:25.806Z,6.74
2019-04-04T04:28:56.241Z,6.75
2019-04-04T04:31:27.455Z,6.73
2019-04-04T04:34:00.818Z,6.71
2019-04-04T04:36:30.094Z,6.73
2019-04-04T04:39:00.667Z,6.74
2019-04-04T04:41:31.117Z,6.72
2019-04-04T04:44:05.096Z,6.70
2019-04-04T04:46:34.207Z,6.67
2019-04-04T04:49:04.655Z,6.68
2019-04-04T04:51:35.096Z,6.62
2019-04-04T04:54:05.604Z,6.56
2019-04-04T04:56:36.362Z,6.48
2019-04-04T04:59:06.797Z,6.43
2019-04-04T05:01:37.285Z,6.47
2019-04-04T05:04:07.829Z,6.52
2019-04-04T05:06:38.273Z,6.55
2019-04-04T05:09:08.773Z,6.65
2019-04-04T05:11:39.253Z,6.71
2019-04-04T05:14:10.766Z,6.66
2019-04-04T05:16:41.585Z,6.56
2019-04-04T05:19:12.045Z,6.60
2019-04-04T05:21:42.577Z,6.60
2019-04-04T05:24:13.086Z,6.70
2019-04-04T05:26:43.649Z,6.78
2019-04-04T05:29:14.223Z,6.85
2019-04-04T05:31:44.744Z,6.86
2019-04-04T05:34:15.213Z,6.95
2019-04-04T05:36:46.005Z,6.92
2019-04-04T05:39:18.010Z,6.97
2019-04-04T05:41:49.517Z,6.92
2019-04-04T05:44:19.928Z,6.86
2019-04-04T05:46:51.919Z,6.79
2019-04-04T05:49:22.622Z,6.80
2019-04-04T05:51:53.401Z,6.87
2019-04-04T05:54:23.881Z,6.96
2019-04-04T05:56:54.309Z,6.97
2019-04-04T05:59:24.856Z,7.01
2019-04-04T06:01:56.276Z,7.00
2019-04-04T06:04:26.707Z,7.05
2019-04-04T06:06:57.136Z,6.98
2019-04-04T06:09:27.932Z,7.07
2019-04-04T06:11:58.366Z,7.06
2019-04-04T06:14:29.974Z,7.03
2019-04-04T06:17:02.501Z,7.13
2019-04-04T06:19:32.933Z,7.15
2019-04-04T06:22:03.382Z,7.06
2019-04-04T06:24:34.744Z,7.07
2019-04-04T06:27:06.980Z,7.16
2019-04-04T06:29:37.587Z,7.22
2019-04-04T06:32:08.068Z,7.20
2019-04-04T06:34:38.527Z,7.15
2019-04-04T06:37:08.960Z,7.22
2019-04-04T06:39:39.437Z,7.22
2019-04-04T06:42:11.322Z,7.30
2019-04-04T06:44:45.081Z,7.38
2019-04-04T06:47:16.572Z,7.39
2019-04-04T06:49:47.398Z,7.42
2019-04-04T06:52:19.232Z,7.40
2019-04-04T06:54:49.834Z,7.41
2019-04-04T06:57:21.551Z,7.39
2019-04-04T06:59:52.026Z,7.31
2019-04-04T07:02:24.009Z,7.37
2019-04-04T07:04:54.585Z,7.30
2019-04-04T07:07:25.504Z,7.33
2019-04-04T07:09:55.986Z,7.39
2019-04-04T07:12:28.378Z,7.31
2019-04-04T07:14:59.041Z,7.35
2019-04-04T07:17:29.804Z,7.30
2019-04-04T07:20:00.232Z,7.34
2019-04-04T07:22:31.373Z,7.30
2019-04-04T07:25:05.737Z,7.26
2019-04-04T07:27:35.862Z,7.21
2019-04-04T07:30:08.038Z,7.26
2019-04-04T07:32:41.007Z,7.34
2019-04-04T07:35:11.117Z,7.40
2019-04-04T07:37:41.551Z,7.50
2019-04-04T07:40:12.390Z,7.56
2019-04-04T07:42:47.031Z,7.70
2019-04-04T07:45:16.882Z,7.64
2019-04-04T07:47:47.773Z,7.71
2019-04-04T07:50:18.386Z,7.88
2019-04-04T07:52:49.152Z,7.99
2019-04-04T07:55:21.439Z,8.08
2019-04-04T07:57:52.923Z,8.15
2019-04-04T08:00:23.455Z,8.20
2019-04-04T08:02:53.891Z,8.13
2019-04-04T08:05:25.054Z,8.07
2019-04-04T08:07:55.485Z,8.09
2019-04-04T08:10:27.728Z,8.19
2019-04-04T08:13:00.084Z,8.19
2019-04-04T08:15:31.275Z,8.32
2019-04-04T08:18:01.781Z,8.43
2019-04-04T08:20:32.592Z,8.51
2019-04-04T08:23:03.285Z,8.58
2019-04-04T08:25:33.722Z,8.61
2019-04-04T08:28:04.390Z,8.67
2019-04-04T08:30:34.849Z,8.64
2019-04-04T08:33:05.383Z,8.61
2019-04-04T08:35:35.866Z,8.63
2019-04-04T08:38:06.754Z,8.58
2019-04-04T08:40:37.288Z,8.62
2019-04-04T08:43:07.769Z,8.61
2019-04-04T08:45:38.490Z,8.62
2019-04-04T08:48:09.321Z,8.69
2019-04-04T08:50:39.805Z,8.70
2019-04-04T08:53:10.243Z,8.66
2019-04-04T08:55:40.684Z,8.76
2019-04-04T08:58:11.857Z,8.87
2019-04-04T09:00:42.498Z,9.01
2019-04-04T09:03:12.934Z,9.09
2019-04-04T09:05:43.417Z,9.24
2019-04-04T09:08:14.222Z,9.35
2019-04-04T09:10:46.643Z,9.33
2019-04-04T09:13:18.220Z,9.39
2019-04-04T09:15:49.060Z,9.36
2019-04-04T09:18:19.498Z,9.39
2019-04-04T09:20:50.078Z,9.59
2019-04-04T09:23:20.510Z,9.53
2019-04-04T09:25:50.950Z,9.50
2019-04-04T09:28:21.593Z,9.41
2019-04-04T09:30:52.071Z,9.57
2019-04-04T09:33:23.604Z,9.68
2019-04-04T09:35:54.109Z,9.90
2019-04-04T09:38:24.552Z,10.03
2019-04-04T09:40:55.026Z,9.96
2019-04-04T09:43:25.923Z,9.96
2019-04-04T09:45:56.445Z,10.13
2019-04-04T09:48:27.078Z,10.12
2019-04-04T09:50:57.568Z,10.07
2019-04-04T09:53:28.046Z,10.06
2019-04-04T09:55:58.752Z,9.91
2019-04-04T09:58:29.450Z,9.87
2019-04-04T10:01:00.174Z,9.83
2019-04-04T10:03:30.613Z,9.88
2019-04-04T10:06:01.085Z,9.96
2019-04-04T10:08:31.808Z,10.04
2019-04-04T10:11:02.246Z,10.03
2019-04-04T10:13:33.495Z,10.07
2019-04-04T10:16:04.035Z,10.08
2019-04-04T10:18:34.770Z,10.02
2019-04-04T10:21:11.989Z,9.93
2019-04-04T10:23:38.856Z,10.01
2019-04-04T10:26:09.299Z,10.12
2019-04-04T10:28:39.799Z,10.22
2019-04-04T10:31:10.250Z,10.27
2019-04-04T10:33:42.193Z,10.25
2019-04-04T10:36:13.399Z,10.20
2019-04-04T10:38:44.261Z,10.19
2019-04-04T10:41:14.696Z,10.16
2019-04-04T10:43:45.173Z,10.24
2019-04-04T10:46:16.325Z,10.22
2019-04-04T10:48:47.076Z,10.13
2019-04-04T10:51:17.656Z,10.10
2019-04-04T10:53:48.398Z,10.05
2019-04-04T10:56:18.835Z,10.09
2019-04-04T10:58:49.654Z,10.02
2019-04-04T11:01:20.393Z,10.06
2019-04-04T11:03:51.566Z,10.10
2019-04-04T11:06:22.069Z,10.07
2019-04-04T11:08:52.892Z,10.11
2019-04-04T11:11:23.329Z,10.15
2019-04-04T11:13:54.238Z,10.20
2019-04-04T11:16:30.370Z,10.15
2019-04-04T11:18:56.981Z,10.18
2019-04-04T11:21:27.486Z,10.22
2019-04-04T11:23:57.938Z,10.24
2019-04-04T11:26:28.477Z,10.36
2019-04-04T11:28:58.978Z,10.52
2019-04-04T11:31:29.907Z,10.53
2019-04-04T11:34:00.350Z,10.48
2019-04-04T11:36:31.182Z,10.51
2019-04-04T11:39:01.631Z,10.61
2019-04-04T11:41:32.107Z,10.55
2019-04-04T11:44:02.586Z,10.63
2019-04-04T11:46:33.200Z,10.59
2019-04-04T11:49:03.636Z,10.52
2019-04-04T11:51:34.130Z,10.49
2019-04-04T11:54:04.870Z,10.49
2019-04-04T11:56:35.331Z,10.45
2019-04-04T11:59:08.157Z,10.42
2019-04-04T12:01:39.970Z,10.36
2019-04-04T12:04:10.457Z,10.40
2019-04-04T12:06:41.550Z,10.36
2019-04-04T12:09:12.766Z,10.34
2019-04-04T12:11:43.350Z,10.27
2019-04-04T12:14:14.772Z,10.28
2019-04-04T12:16:45.234Z,10.30
2019-04-04T12:19:15.788Z,10.22
2019-04-04T12:21:47.717Z,10.21
2019-04-04T12:24:19.975Z,10.18
2019-04-04T12:26:50.895Z,10.07
2019-04-04T12:29:21.345Z,10.04
2019-04-04T12:31:51.794Z,10.14
2019-04-04T12:34:22.592Z,10.18
2019-04-04T12:36:53.062Z,10.25
2019-04-04T12:39:23.513Z,10.20
2019-04-04T12:41:54.038Z,10.21
2019-04-04T12:44:24.823Z,10.21
2019-04-04T12:46:55.266Z,10.19
2019-04-04T12:49:27.393Z,10.16
2019-04-04T12:51:58.195Z,10.18
2019-04-04T12:54:28.652Z,10.22
2019-04-04T12:56:59.148Z,10.33
2019-04-04T12:59:29.591Z,10.31
2019-04-04T13:02:00.389Z,10.30
2019-04-04T13:04:32.409Z,10.32
2019-04-04T13:07:03.910Z,10.33
2019-04-04T13:09:34.358Z,10.37
2019-04-04T13:12:05.928Z,10.42
2019-04-04T13:14:36.398Z,10.41
2019-04-04T13:17:07.237Z,10.37
2019-04-04T13:19:38.413Z,10.32
2019-04-04T13:22:09.251Z,10.28
2019-04-04T13:24:41.191Z,10.28
2019-04-04T13:27:11.680Z,10.32
2019-04-04T13:29:44.029Z,10.38
2019-04-04T13:32:14.470Z,10.38
2019-04-04T13:34:44.983Z,10.43
2019-04-04T13:37:15.815Z,10.45
2019-04-04T13:39:46.264Z,10.42
2019-04-04T13:42:17.726Z,10.37
2019-04-04T13:44:50.468Z,10.39
2019-04-04T13:47:20.754Z,10.38
2019-04-04T13:49:51.596Z,10.35
2019-04-04T13:52:22.157Z,10.22
2019-04-04T13:54:55.633Z,10.11
2019-04-04T13:57:25.632Z,9.98
2019-04-04T13:59:56.062Z,9.91
2019-04-04T14:02:26.868Z,9.87
2019-04-04T14:05:09.148Z,9.98
2019-04-04T14:07:29.598Z,9.96
2019-04-04T14:10:00.039Z,9.85
2019-04-04T14:12:31.301Z,9.87
2019-04-04T14:15:02.080Z,9.78
2019-04-04T14:17:32.532Z,9.77
2019-04-04T14:20:03.380Z,9.82
2019-04-04T14:22:34.131Z,9.76
2019-04-04T14:25:05.189Z,9.79
2019-04-04T14:27:35.694Z,9.75
2019-04-04T14:30:07.216Z,9.80
2019-04-04T14:32:37.906Z,9.83
2019-04-04T14:35:08.908Z,9.81
2019-04-04T14:37:39.339Z,9.87
2019-04-04T14:40:09.980Z,9.82
2019-04-04T14:42:41.400Z,9.69
2019-04-04T14:45:12.305Z,9.71
2019-04-04T14:47:42.749Z,9.76
2019-04-04T14:50:13.330Z,9.68
2019-04-04T14:52:43.932Z,9.67
2019-04-04T14:55:14.376Z,9.68
2019-04-04T14:57:44.876Z,9.73
2019-04-04T15:00:16.704Z,9.70
2019-04-04T15:02:49.051Z,9.70
2019-04-04T15:05:19.652Z,9.64
2019-04-04T15:07:50.668Z,9.68
2019-04-04T15:10:21.105Z,9.60
2019-04-04T15:12:52.210Z,9.58
2019-04-04T15:15:22.989Z,9.53
2019-04-04T15:17:53.785Z,9.49
2019-04-04T15:20:24.573Z,9.48
2019-04-04T15:22:55.361Z,9.48
2019-04-04T15:25:26.505Z,9.55
2019-04-04T15:27:57.003Z,9.51
2019-04-04T15:30:28.372Z,9.51
2019-04-04T15:32:58.802Z,9.53
2019-04-04T15:35:29.657Z,9.58
2019-04-04T15:38:00.111Z,9.51
2019-04-04T15:40:30.922Z,9.55
2019-04-04T15:43:01.460Z,9.52
2019-04-04T15:45:31.933Z,9.55
2019-04-04T15:48:02.689Z,9.55
2019-04-04T15:50:33.208Z,9.55
2019-04-04T15:53:03.993Z,9.56
2019-04-04T15:55:34.611Z,9.48
2019-04-04T15:58:05.200Z,9.44
2019-04-04T16:00:35.642Z,9.46
2019-04-04T16:03:06.077Z,9.43
2019-04-04T16:05:38.784Z,9.44
2019-04-04T16:08:10.937Z,9.45
2019-04-04T16:10:41.813Z,9.41
2019-04-04T16:13:12.345Z,9.45
2019-04-04T16:15:43.844Z,9.50
2019-04-04T16:18:14.293Z,9.49
2019-04-04T16:20:46.692Z,9.52
2019-04-04T16:23:17.143Z,9.68
2019-04-04T16:25:47.966Z,9.74
2019-04-04T16:28:18.491Z,9.66
2019-04-04T16:30:49.345Z,9.70
2019-04-04T16:33:19.799Z,9.67
2019-04-04T16:35:50.298Z,9.71
2019-04-04T16:38:22.928Z,9.72
2019-04-04T16:40:53.504Z,9.68
2019-04-04T16:43:24.236Z,9.64
2019-04-04T16:45:55.120Z,9.66
2019-04-04T16:48:25.569Z,9.65
2019-04-04T16:50:56.048Z,9.68
2019-04-04T16:53:26.497Z,9.75
2019-04-04T16:55:57.328Z,9.71
2019-04-04T16:58:28.229Z,9.65
2019-04-04T17:00:59.030Z,9.63
2019-04-04T17:03:30.048Z,9.59
2019-04-04T17:06:01.196Z,9.52
2019-04-04T17:08:31.638Z,9.44
2019-04-04T17:11:02.166Z,9.44
2019-04-04T17:13:33.246Z,9.44
2019-04-04T17:16:04.044Z,9.40
2019-04-04T17:18:34.878Z,9.47
2019-04-04T17:21:05.417Z,9.42
2019-04-04T17:23:35.853Z,9.38
2019-04-04T17:26:06.686Z,9.39
2019-04-04T17:28:37.666Z,9.44
2019-04-04T17:31:08.608Z,9.41
2019-04-04T17:33:40.264Z,9.40
2019-04-04T17:36:10.944Z,9.46
2019-04-04T17:38:41.595Z,9.45
2019-04-04T17:41:12.162Z,9.40
2019-04-04T17:43:43.897Z,9.32
2019-04-04T17:46:14.826Z,9.39
2019-04-04T17:48:45.365Z,9.33
2019-04-04T17:51:15.875Z,9.31
2019-04-04T17:53:46.918Z,9.34
2019-04-04T17:56:18.042Z,9.35
2019-04-04T17:58:48.902Z,9.28
2019-04-04T18:01:19.437Z,9.27
2019-04-04T18:03:50.498Z,9.34
2019-04-04T18:06:21.359Z,9.29
2019-04-04T18:08:52.334Z,9.25
2019-04-04T18:11:22.886Z,9.28
2019-04-04T18:13:54.864Z,9.26
2019-04-04T18:16:27.225Z,9.32
2019-04-04T18:18:57.861Z,9.31
2019-04-04T18:21:28.666Z,9.30
2019-04-04T18:23:59.132Z,9.32
2019-04-04T18:26:31.441Z,9.25
2019-04-04T18:29:02.493Z,9.23
2019-04-04T18:31:32.941Z,9.18
2019-04-04T18:34:04.230Z,9.19
2019-04-04T18:36:41.456Z,9.13
2019-04-04T18:39:12.246Z,9.06
2019-04-04T18:41:42.975Z,9.08
2019-04-04T18:44:13.452Z,9.04
2019-04-04T18:46:44.585Z,9.08
2019-04-04T18:49:15.078Z,9.11
2019-04-04T18:51:45.674Z,9.11
2019-04-04T18:54:16.696Z,8.99
2019-04-04T18:56:47.142Z,8.95
2019-04-04T18:59:17.631Z,8.97
2019-04-04T19:01:48.166Z,9.03
2019-04-04T19:04:18.877Z,9.00
2019-04-04T19:06:52.499Z,9.02
2019-04-04T19:09:23.134Z,8.98
2019-04-04T19:11:53.597Z,9.06
2019-04-04T19:14:24.093Z,8.98
2019-04-04T19:16:56.571Z,8.92
2019-04-04T19:19:27.543Z,8.95
2019-04-04T19:21:58.480Z,8.88
2019-04-04T19:24:29.310Z,8.98
2019-04-04T19:27:00.884Z,8.93
2019-04-04T19:29:31.781Z,8.81
2019-04-04T19:32:02.553Z,8.79
2019-04-04T19:34:32.995Z,8.78
2019-04-04T19:37:04.130Z,8.74
2019-04-04T19:39:36.476Z,8.73
2019-04-04T19:42:08.367Z,8.72
2019-04-04T19:44:38.882Z,8.75
2019-04-04T19:47:09.426Z,8.70
2019-04-04T19:49:39.923Z,8.72
2019-04-04T19:52:10.784Z,8.64
2019-04-04T19:54:41.409Z,8.56
2019-04-04T19:57:16.706Z,8.54
2019-04-04T19:59:47.153Z,8.58
2019-04-04T20:02:20.385Z,8.45
2019-04-04T20:04:50.831Z,8.52
2019-04-04T20:07:21.692Z,8.56
2019-04-04T20:09:52.512Z,8.61
2019-04-04T20:12:23.033Z,8.60
2019-04-04T20:14:53.526Z,8.64
2019-04-04T20:17:24.179Z,8.66
2019-04-04T20:19:54.681Z,8.62
2019-04-04T20:22:25.192Z,8.54
2019-04-04T20:24:57.490Z,8.56
2019-04-04T20:27:28.351Z,8.56
2019-04-04T20:29:58.875Z,8.53
2019-04-04T20:32:30.932Z,8.51
2019-04-04T20:35:02.445Z,8.41
2019-04-04T20:37:33.296Z,8.41
2019-04-04T20:40:05.332Z,8.42
2019-04-04T20:42:35.848Z,8.32
2019-04-04T20:45:07.062Z,8.35
2019-04-04T20:47:38.066Z,8.41
2019-04-04T20:50:08.810Z,8.38
2019-04-04T20:52:40.427Z,8.45
2019-04-04T20:55:12.093Z,8.45
2019-04-04T20:57:42.620Z,8.48
2019-04-04T21:00:14.506Z,8.49
2019-04-04T21:02:45.017Z,8.45
2019-04-04T21:05:15.542Z,8.41
2019-04-04T21:07:46.794Z,8.40
2019-04-04T21:10:17.813Z,8.44
2019-04-04T21:12:49.103Z,8.47
2019-04-04T21:15:20.390Z,8.45
2019-04-04T21:17:50.853Z,8.45
2019-04-04T21:20:21.396Z,8.51
2019-04-04T21:22:53.692Z,8.51
2019-04-04T21:25:25.233Z,8.51
2019-04-04T21:27:55.891Z,8.39
2019-04-04T21:30:26.379Z,8.48
2019-04-04T21:32:57.293Z,8.45
2019-04-04T21:35:28.235Z,8.43
2019-04-04T21:37:59.106Z,8.46
2019-04-04T21:40:29.646Z,8.39
2019-04-04T21:43:00.179Z,8.37
2019-04-04T21:45:30.682Z,8.29
2019-04-04T21:48:02.021Z,8.30
2019-04-04T21:50:33.235Z,8.26
2019-04-04T21:53:03.773Z,8.25
2019-04-04T21:55:34.209Z,8.20
2019-04-04T21:58:05.345Z,8.29
2019-04-04T22:00:41.900Z,8.26
2019-04-04T22:03:12.781Z,8.27
2019-04-04T22:05:43.216Z,8.32
2019-04-04T22:08:13.706Z,8.33
2019-04-04T22:10:44.217Z,8.28
2019-04-04T22:13:14.657Z,8.32
2019-04-04T22:15:45.792Z,8.22
2019-04-04T22:18:16.227Z,8.25
2019-04-04T22:20:46.980Z,8.21
2019-04-04T22:23:17.454Z,8.12
2019-04-04T22:25:49.355Z,8.04
2019-04-04T22:28:20.295Z,8.09
2019-04-04T22:30:52.493Z,8.06
2019-04-04T22:33:22.929Z,8.07
2019-04-04T22:35:53.763Z,8.10
2019-04-04T22:38:24.266Z,8.11
2019-04-04T22:40:54.700Z,8.02
2019-04-04T22:43:25.136Z,8.01
2019-04-04T22:45:55.610Z,7.96
2019-04-04T22:48:26.411Z,7.93
2019-04-04T22:50:56.914Z,7.88
2019-04-04T22:53:27.447Z,7.89
2019-04-04T22:55:57.879Z,7.85
2019-04-04T22:58:29.048Z,7.88
2019-04-04T23:01:00.466Z,7.85
2019-04-04T23:03:30.906Z,7.90
2019-04-04T23:06:01.990Z,7.87
2019-04-04T23:08:32.475Z,7.87
2019-04-04T23:11:02.912Z,7.89
2019-04-04T23:13:33.702Z,7.90
2019-04-04T23:16:04.614Z,7.83
2019-04-04T23:18:35.366Z,7.85
2019-04-04T23:21:05.821Z,7.79
2019-04-04T23:23:36.328Z,7.87
2019-04-04T23:26:06.770Z,7.81
2019-04-04T23:28:37.231Z,7.92
2019-04-04T23:31:07.738Z,7.86
2019-04-04T23:33:38.178Z,7.86
2019-04-04T23:36:08.668Z,7.78
2019-04-04T23:38:39.101Z,7.79
2019-04-04T23:41:09.541Z,7.81
2019-04-04T23:43:40.039Z,7.78
2019-04-04T23:46:10.809Z,7.70
2019-04-04T23:48:41.647Z,7.73
2019-04-04T23:51:12.467Z,7.68
2019-04-04T23:53:42.903Z,7.66
2019-04-04T23:56:13.391Z,7.71
2019-04-04T23:58:43.875Z,7.71
